Time;durP1;ratioP1;P1;durP2;ratioP2;P2;SDS_P1;SDS_P2;PMS_P1;PMS_P2;Temp;Humidity;BMP_temperature;BMP_pressure;BME280_temperature;BME280_humidity;BME280_pressure;Samples;Min_cycle;Max_cycle;Signal;HPM_P1;HPM_P2
2022/11/21 00:01:24;;;;;;;8.48;3.15;;;4.80;99.90;;;;;;4940563;28;20024;-93
2022/11/21 00:03:50;;;;;;;6.57;2.28;;;4.80;99.90;;;;;;4940199;29;20059;-93
2022/11/21 00:06:16;;;;;;;8.73;2.40;;;4.90;99.90;;;;;;4958194;29;20082;-94
2022/11/21 00:08:43;;;;;;;13.43;3.33;;;4.90;99.90;;;;;;4941293;29;20477;-93
2022/11/21 00:11:09;;;;;;;11.80;3.15;;;4.90;99.90;;;;;;4940713;29;20027;-92
2022/11/21 00:13:35;;;;;;;10.05;2.67;;;4.90;99.90;;;;;;4940772;29;20120;-92
2022/11/21 00:16:05;;;;;;;9.13;2.28;;;4.90;99.90;;;;;;4940496;29;20038;-92
2022/11/21 00:18:33;;;;;;;10.27;2.20;;;4.80;99.90;;;;;;4940314;29;20031;-93
2022/11/21 00:21:06;;;;;;;8.45;2.80;;;4.70;99.90;;;;;;4940158;28;20024;-92
2022/11/21 00:23:32;;;;;;;6.60;2.80;;;4.70;99.90;;;;;;4940337;29;20020;-93
2022/11/21 00:25:57;;;;;;;19.08;4.97;;;4.60;99.90;;;;;;4940278;29;20034;-94
2022/11/21 00:28:23;;;;;;;9.88;2.20;;;4.60;99.90;;;;;;4940157;28;20066;-94
2022/11/21 00:30:49;;;;;;;18.05;2.67;;;4.50;99.90;;;;;;4940719;29;20027;-94
2022/11/21 00:33:14;;;;;;;9.95;2.78;;;4.60;99.90;;;;;;4943482;29;20587;-92
2022/11/21 00:35:40;;;;;;;4.47;2.40;;;4.60;99.90;;;;;;4953444;29;20034;-94
2022/11/21 00:38:05;;;;;;;12.30;2.58;;;4.70;99.90;;;;;;4961302;28;20573;-94
2022/11/21 00:40:31;;;;;;;6.30;1.90;;;4.70;99.90;;;;;;4939517;29;20485;-92
2022/11/21 00:42:57;;;;;;;4.85;2.15;;;4.70;99.90;;;;;;4940250;29;20130;-93
2022/11/21 00:45:22;;;;;;;9.93;2.25;;;4.60;99.90;;;;;;4939557;29;20031;-92
2022/11/21 00:47:48;;;;;;;10.10;2.40;;;4.60;99.90;;;;;;4956901;28;20027;-93
2022/11/21 00:50:13;;;;;;;12.68;2.58;;;4.60;99.90;;;;;;4939150;29;20083;-93
2022/11/21 00:52:39;;;;;;;7.78;2.17;;;4.60;99.90;;;;;;4941339;29;20051;-94
2022/11/21 00:55:08;;;;;;;9.20;2.47;;;4.60;99.90;;;;;;4951515;29;20034;-89
2022/11/21 00:57:34;;;;;;;10.20;2.70;;;4.40;99.90;;;;;;4961702;28;20043;-89
2022/11/21 01:00:01;;;;;;;9.77;2.33;;;4.30;99.90;;;;;;4977152;28;20020;-94
2022/11/21 01:02:27;;;;;;;10.60;2.10;;;4.20;99.90;;;;;;4958679;29;20031;-94
2022/11/21 01:04:52;;;;;;;13.80;2.55;;;4.10;99.90;;;;;;4954865;29;20110;-94
2022/11/21 01:07:18;;;;;;;9.88;2.53;;;4.00;99.90;;;;;;4946710;29;20023;-94
2022/11/21 01:09:43;;;;;;;7.07;2.65;;;3.90;99.90;;;;;;4965268;28;20070;-95
2022/11/21 01:12:09;;;;;;;16.25;2.90;;;4.00;99.90;;;;;;4968801;29;20137;-95
2022/11/21 01:14:35;;;;;;;10.20;2.25;;;4.00;99.90;;;;;;4946082;29;20465;-94
2022/11/21 01:17:00;;;;;;;6.47;2.22;;;4.00;99.90;;;;;;4952379;29;20136;-93
2022/11/21 01:19:26;;;;;;;9.80;1.70;;;4.10;99.90;;;;;;4949569;29;20082;-93
2022/11/21 01:21:52;;;;;;;6.30;2.10;;;4.10;99.90;;;;;;4944654;29;20473;-92
2022/11/21 01:24:17;;;;;;;10.23;1.85;;;4.10;99.90;;;;;;4946990;29;20055;-94
2022/11/21 01:26:43;;;;;;;15.20;4.57;;;4.00;99.90;;;;;;4947402;28;20047;-94
2022/11/21 01:29:09;;;;;;;10.27;4.15;;;4.00;99.90;;;;;;4966426;29;20020;-93
2022/11/21 01:31:35;;;;;;;16.15;4.75;;;3.90;99.90;;;;;;4947491;29;20584;-93
2022/11/21 01:34:01;;;;;;;10.80;4.40;;;3.80;99.90;;;;;;4949376;29;20472;-93
2022/11/21 01:36:32;;;;;;;11.73;3.25;;;3.80;99.90;;;;;;4958866;29;20031;-92
2022/11/21 01:39:02;;;;;;;9.93;3.78;;;3.80;99.90;;;;;;4968092;28;20031;-94
2022/11/21 01:41:32;;;;;;;8.75;2.22;;;3.80;99.90;;;;;;4959604;29;20019;-93
2022/11/21 01:43:59;;;;;;;6.88;1.55;;;3.80;99.90;;;;;;4956253;29;20110;-93
2022/11/21 01:46:25;;;;;;;6.43;1.65;;;3.80;99.90;;;;;;4957894;29;20041;-94
2022/11/21 01:49:12;;;;;;;6.90;1.80;;;3.80;99.90;;;;;;4959183;29;20079;-92
2022/11/21 01:52:00;;;;;;;5.30;1.40;;;3.70;99.90;;;;;;4955731;29;20039;-94
2022/11/21 01:54:28;;;;;;;5.05;1.70;;;3.60;99.90;;;;;;4967631;28;20051;-95
2022/11/21 01:56:59;;;;;;;8.27;1.75;;;3.50;99.90;;;;;;4951847;29;20031;-94
2022/11/21 01:59:36;;;;;;;9.52;2.25;;;3.60;99.90;;;;;;4953790;29;20062;-92
2022/11/21 02:02:04;;;;;;;6.78;1.73;;;3.60;99.90;;;;;;4953601;29;20047;-92
2022/11/21 02:04:33;;;;;;;3.88;1.77;;;3.50;99.90;;;;;;4956071;29;20031;-92
2022/11/21 02:07:03;;;;;;;7.18;1.63;;;3.50;99.90;;;;;;4957786;29;20027;-93
2022/11/21 02:09:32;;;;;;;13.87;2.00;;;3.40;99.90;;;;;;4946511;29;20027;-95
2022/11/21 02:12:22;;;;;;;8.75;2.60;;;3.40;99.90;;;;;;4939708;29;20063;-95
2022/11/21 02:14:48;;;;;;;10.55;3.30;;;3.30;99.90;;;;;;4940114;28;20028;-95
2022/11/21 02:17:17;;;;;;;11.70;2.95;;;3.20;99.90;;;;;;4945910;29;20032;-93
2022/11/21 02:19:54;;;;;;;8.32;2.17;;;3.20;99.90;;;;;;4967345;29;20023;-92
2022/11/21 02:22:31;;;;;;;8.13;2.88;;;3.20;99.90;;;;;;4947107;29;20028;-92
2022/11/21 02:25:23;;;;;;;9.70;2.92;;;3.20;99.90;;;;;;4954074;29;20024;-94
2022/11/21 02:27:54;;;;;;;11.45;3.22;;;3.20;99.90;;;;;;4944889;28;20043;-93
2022/11/21 02:30:20;;;;;;;13.05;3.28;;;3.10;99.90;;;;;;4944100;29;20027;-93
2022/11/21 02:32:46;;;;;;;7.72;3.00;;;3.10;99.90;;;;;;4945570;29;20088;-93
2022/11/21 02:35:13;;;;;;;6.40;2.58;;;3.10;99.90;;;;;;4948824;29;20023;-94
2022/11/21 02:37:40;;;;;;;8.77;3.40;;;3.00;99.90;;;;;;4946191;29;20063;-94
2022/11/21 02:40:15;;;;;;;12.40;2.53;;;3.00;99.90;;;;;;4953621;29;20035;-94
2022/11/21 02:43:02;;;;;;;12.25;3.25;;;2.90;99.90;;;;;;4952796;29;20023;-94
2022/11/21 02:45:48;;;;;;;40.35;3.17;;;2.90;99.90;;;;;;4947118;29;20031;-94
2022/11/21 02:48:14;;;;;;;56.35;4.85;;;2.80;99.90;;;;;;4948396;29;20019;-94
2022/11/21 02:50:44;;;;;;;76.47;6.97;;;2.70;99.90;;;;;;4953300;29;20389;-94
2022/11/21 02:53:15;;;;;;;21.67;3.85;;;2.70;99.90;;;;;;4951907;29;20038;-93
2022/11/21 02:55:41;;;;;;;;;;;2.60;99.90;;;;;;4949467;29;20042;-93
2022/11/21 02:58:07;;;;;;;20.52;4.40;;;2.60;99.90;;;;;;4949553;28;19915;-94
2022/11/21 03:00:35;;;;;;;12.43;4.22;;;2.60;99.90;;;;;;4944995;29;20054;-94
2022/11/21 03:03:01;;;;;;;15.88;4.13;;;2.50;99.90;;;;;;4943005;29;20031;-93
2022/11/21 03:05:27;;;;;;;12.45;4.05;;;2.50;99.90;;;;;;4943105;29;20038;-94
2022/11/21 03:07:52;;;;;;;49.72;6.55;;;2.50;99.90;;;;;;4946670;29;20031;-94
2022/11/21 03:10:19;;;;;;;60.15;5.43;;;2.40;99.90;;;;;;4945682;29;20019;-93
2022/11/21 03:12:45;;;;;;;31.77;4.40;;;2.40;99.90;;;;;;4942653;29;20023;-95
2022/11/21 03:15:13;;;;;;;11.48;4.10;;;2.30;99.90;;;;;;4936996;29;20079;-93
2022/11/21 03:17:39;;;;;;;7.88;3.63;;;2.30;99.90;;;;;;4940986;29;20101;-94
2022/11/21 03:20:05;;;;;;;13.18;4.95;;;2.20;99.90;;;;;;4939970;29;20468;-94
2022/11/21 03:22:31;;;;;;;11.98;4.88;;;2.20;99.90;;;;;;4940098;29;20043;-93
2022/11/21 03:24:57;;;;;;;18.83;5.28;;;2.10;99.90;;;;;;4939161;29;20019;-93
2022/11/21 03:27:22;;;;;;;15.88;5.10;;;2.10;99.90;;;;;;4939537;28;20047;-94
2022/11/21 03:29:48;;;;;;;57.50;4.97;;;2.10;99.90;;;;;;4939952;29;20046;-94
2022/11/21 03:32:14;;;;;;;18.50;4.25;;;2.00;99.90;;;;;;4940082;29;20031;-94
2022/11/21 03:34:40;;;;;;;24.95;6.00;;;2.00;99.90;;;;;;4942735;29;20064;-94
2022/11/21 03:37:06;;;;;;;20.48;4.60;;;2.10;99.90;;;;;;4945915;29;20031;-95
2022/11/21 03:39:32;;;;;;;13.60;4.25;;;2.10;99.90;;;;;;4940901;29;20054;-94
2022/11/21 03:41:58;;;;;;;9.80;4.15;;;2.10;99.90;;;;;;4957670;29;20054;-95
2022/11/21 03:44:23;;;;;;;13.05;3.55;;;2.10;99.90;;;;;;4941756;29;20023;-94
2022/11/21 03:46:49;;;;;;;12.30;3.88;;;2.10;99.90;;;;;;4943135;29;20111;-95
2022/11/21 03:49:15;;;;;;;8.75;3.83;;;2.10;99.90;;;;;;4942074;29;20532;-95
2022/11/21 03:51:42;;;;;;;8.80;3.88;;;2.10;99.90;;;;;;4945601;29;20091;-95
2022/11/21 03:54:08;;;;;;;11.50;3.17;;;2.20;99.90;;;;;;4946304;29;20031;-93
2022/11/21 03:56:34;;;;;;;7.45;2.33;;;2.20;99.90;;;;;;4949047;28;20440;-93
2022/11/21 03:59:00;;;;;;;9.60;2.90;;;2.30;99.90;;;;;;4954813;29;20030;-92
2022/11/21 04:01:26;;;;;;;4.47;2.60;;;2.20;99.90;;;;;;4960994;29;20140;-91
2022/11/21 04:03:52;;;;;;;4.80;1.80;;;2.20;99.90;;;;;;4955673;29;20066;-93
2022/11/21 04:06:20;;;;;;;23.15;4.47;;;2.20;99.90;;;;;;4938799;29;20046;-93
2022/11/21 04:08:46;;;;;;;30.48;5.32;;;2.10;99.90;;;;;;4938051;29;20055;-92
2022/11/21 04:11:12;;;;;;;156.05;7.90;;;2.00;99.90;;;;;;4939223;29;20027;-93
2022/11/21 04:13:38;;;;;;;106.57;6.10;;;2.00;99.90;;;;;;4937326;28;20023;-90
2022/11/21 04:16:04;;;;;;;47.60;4.82;;;1.90;99.90;;;;;;4940558;29;20023;-94
2022/11/21 04:18:30;;;;;;;25.98;5.43;;;1.90;99.90;;;;;;4941660;29;20035;-94
2022/11/21 04:21:03;;;;;;;37.55;4.53;;;1.80;99.90;;;;;;4954868;29;20038;-95
2022/11/21 04:23:29;;;;;;;19.55;4.55;;;1.80;99.90;;;;;;4940682;29;20038;-93
2022/11/21 04:25:55;;;;;;;24.48;3.53;;;1.80;99.90;;;;;;4940728;28;20027;-94
2022/11/21 04:28:21;;;;;;;49.13;4.78;;;1.70;99.90;;;;;;4942627;28;20078;-94
2022/11/21 04:30:47;;;;;;;41.78;4.38;;;1.70;99.90;;;;;;4944157;29;20050;-93
2022/11/21 04:33:14;;;;;;;19.88;3.55;;;1.70;99.90;;;;;;4943230;29;20020;-95
2022/11/21 04:35:42;;;;;;;20.67;4.15;;;1.70;99.90;;;;;;4947264;29;20077;-93
2022/11/21 04:38:07;;;;;;;36.45;3.88;;;1.70;99.90;;;;;;4950852;28;20034;-95
2022/11/21 04:40:34;;;;;;;23.35;4.00;;;1.70;99.90;;;;;;4949542;28;20027;-95
2022/11/21 04:43:00;;;;;;;28.33;4.38;;;1.80;99.90;;;;;;4947106;29;20059;-94
2022/11/21 04:45:26;;;;;;;25.98;3.45;;;1.80;99.90;;;;;;4947187;29;20177;-94
2022/11/21 04:47:51;;;;;;;54.67;4.53;;;1.90;99.90;;;;;;4938027;29;20087;-93
2022/11/21 04:50:19;;;;;;;96.45;8.18;;;2.00;99.90;;;;;;4955842;29;20058;-94
2022/11/21 04:52:53;;;;;;;30.98;3.60;;;2.00;99.90;;;;;;4938698;29;20035;-94
2022/11/21 04:55:21;;;;;;;42.95;3.47;;;2.00;99.90;;;;;;4964553;28;20031;-94
2022/11/21 04:57:47;;;;;;;28.30;3.47;;;2.00;99.90;;;;;;4948541;29;20039;-95
2022/11/21 05:00:14;;;;;;;60.83;5.40;;;2.00;99.90;;;;;;4967197;28;20024;-93
2022/11/21 05:02:40;;;;;;;30.98;3.25;;;2.00;99.90;;;;;;4948196;29;20047;-95
2022/11/21 05:05:07;;;;;;;32.85;3.55;;;1.90;99.90;;;;;;4949376;29;20019;-94
2022/11/21 05:07:33;;;;;;;36.28;2.85;;;1.90;99.90;;;;;;4946257;28;20028;-96
2022/11/21 05:10:00;;;;;;;34.30;3.22;;;1.90;99.90;;;;;;4945454;29;20066;-94
2022/11/21 05:15:10;;;;;;;52.28;3.90;;;1.80;99.90;;;;;;4966949;28;20034;-94
2022/11/21 05:17:36;;;;;;;50.40;3.38;;;1.80;99.90;;;;;;4951091;29;20047;-93
2022/11/21 05:20:03;;;;;;;37.05;3.15;;;1.80;99.90;;;;;;4949938;29;20016;-94
2022/11/21 05:22:28;;;;;;;33.47;2.95;;;1.80;99.90;;;;;;4967684;28;20035;-94
2022/11/21 05:24:54;;;;;;;30.38;2.83;;;1.70;99.90;;;;;;4949242;29;20027;-95
2022/11/21 05:27:19;;;;;;;10.50;2.60;;;1.70;99.90;;;;;;4947343;28;20055;-94
2022/11/21 05:29:45;;;;;;;16.38;2.45;;;1.70;99.90;;;;;;4946442;29;20035;-95
2022/11/21 05:32:11;;;;;;;8.35;2.47;;;1.70;99.90;;;;;;4961568;29;20039;-95
2022/11/21 05:34:37;;;;;;;18.08;2.33;;;1.60;99.90;;;;;;4962217;28;20503;-95
2022/11/21 05:37:03;;;;;;;15.68;3.00;;;1.70;99.90;;;;;;4964663;28;20066;-94
2022/11/21 05:39:29;;;;;;;17.05;2.72;;;1.70;99.90;;;;;;4972114;28;20222;-91
2022/11/21 05:41:55;;;;;;;12.00;2.50;;;1.70;99.90;;;;;;4954985;29;20027;-94
2022/11/21 05:44:21;;;;;;;22.67;3.15;;;1.70;99.90;;;;;;4973532;28;20090;-94
2022/11/21 05:46:46;;;;;;;13.88;3.33;;;1.70;99.90;;;;;;4953914;29;20038;-94
2022/11/21 05:49:12;;;;;;;26.52;3.15;;;1.70;99.90;;;;;;4970376;29;20082;-92
2022/11/21 05:51:38;;;;;;;26.98;3.80;;;1.70;99.90;;;;;;4954014;29;20187;-94
2022/11/21 05:54:05;;;;;;;11.30;2.10;;;1.70;99.90;;;;;;4958729;29;20051;-94
2022/11/21 05:56:31;;;;;;;19.92;2.40;;;1.70;99.90;;;;;;4958579;29;20066;-92
2022/11/21 05:58:58;;;;;;;23.20;2.45;;;1.70;99.90;;;;;;4954950;29;20078;-95
2022/11/21 06:04:09;;;;;;;30.77;2.88;;;1.70;99.90;;;;;;4969338;28;20170;-94
2022/11/21 06:06:35;;;;;;;46.40;3.80;;;1.60;99.90;;;;;;4948333;29;20027;-93
2022/11/21 06:09:01;;;;;;;42.78;3.30;;;1.60;99.90;;;;;;4956193;29;20042;-94
2022/11/21 06:11:27;;;;;;;26.67;3.60;;;1.60;99.90;;;;;;4956204;29;20042;-95
2022/11/21 06:13:53;;;;;;;48.33;5.35;;;1.60;99.90;;;;;;4977535;29;20028;-90
2022/11/21 06:16:20;;;;;;;44.33;3.20;;;1.60;99.90;;;;;;4974503;29;20023;-95
2022/11/21 06:18:49;;;;;;;21.60;3.45;;;1.60;99.90;;;;;;4941631;29;20060;-94
2022/11/21 06:21:25;;;;;;;31.95;4.15;;;1.60;99.90;;;;;;4961101;29;20046;-94
2022/11/21 06:23:53;;;;;;;49.70;4.57;;;1.60;99.90;;;;;;4958706;29;20027;-95
2022/11/21 06:26:22;;;;;;;64.13;4.00;;;1.60;99.90;;;;;;4952823;28;20071;-96
2022/11/21 06:28:48;;;;;;;17.35;3.30;;;1.70;99.90;;;;;;4966263;28;20134;-95
2022/11/21 06:31:16;;;;;;;21.30;3.17;;;1.70;99.90;;;;;;4970079;28;20026;-94
2022/11/21 06:33:45;;;;;;;18.05;3.55;;;1.70;99.90;;;;;;4970066;28;20019;-94
2022/11/21 06:36:18;;;;;;;76.97;5.25;;;1.70;99.90;;;;;;4973653;28;20029;-95
2022/11/21 06:38:45;;;;;;;60.55;3.97;;;1.70;99.90;;;;;;4988529;28;20035;-95
2022/11/21 06:41:19;;;;;;;28.55;3.53;;;1.70;99.90;;;;;;4974762;28;20091;-94
2022/11/21 06:43:45;;;;;;;22.58;3.38;;;1.70;99.90;;;;;;4971001;28;20019;-94
2022/11/21 06:46:12;;;;;;;24.77;3.45;;;1.80;99.90;;;;;;4968710;28;20022;-94
2022/11/21 06:48:38;;;;;;;63.05;6.63;;;1.80;99.90;;;;;;4964400;28;20046;-94
2022/11/21 06:51:06;;;;;;;33.47;3.58;;;1.80;99.90;;;;;;4965158;28;20023;-95
2022/11/21 06:53:32;;;;;;;34.00;3.88;;;1.80;99.90;;;;;;4966617;28;20062;-95
2022/11/21 06:55:58;;;;;;;94.28;6.30;;;1.80;99.90;;;;;;4966793;28;20115;-95
2022/11/21 06:58:24;;;;;;;48.97;4.65;;;1.80;99.90;;;;;;4971050;28;20043;-95
2022/11/21 07:00:50;;;;;;;37.47;4.45;;;1.70;99.90;;;;;;4971699;28;20054;-94
2022/11/21 07:03:16;;;;;;;34.92;4.30;;;1.70;99.90;;;;;;4966195;28;20302;-93
2022/11/21 07:05:41;;;;;;;34.47;6.05;;;1.70;99.90;;;;;;4970233;28;20026;-95
2022/11/21 07:08:07;;;;;;;30.35;4.13;;;1.70;99.90;;;;;;4984922;28;20027;-91
2022/11/21 07:10:33;;;;;;;40.55;4.53;;;1.70;99.90;;;;;;4981029;28;20031;-89
2022/11/21 07:15:45;;;;;;;18.50;4.07;;;1.70;99.90;;;;;;4985880;28;20091;-95
2022/11/21 07:18:12;;;;;;;26.88;5.00;;;1.70;99.90;;;;;;4977950;28;20114;-95
2022/11/21 07:20:42;;;;;;;39.38;5.32;;;1.80;99.90;;;;;;4979319;28;20043;-93
2022/11/21 07:23:08;;;;;;;40.63;6.75;;;1.80;99.90;;;;;;4963122;28;20065;-96
2022/11/21 07:25:35;;;;;;;40.15;5.68;;;1.80;99.90;;;;;;4994715;28;20033;-95
2022/11/21 07:28:01;;;;;;;24.85;7.45;;;1.80;99.90;;;;;;4979432;28;20094;-94
2022/11/21 07:30:27;;;;;;;29.63;5.00;;;1.80;99.90;;;;;;4997736;28;20038;-93
2022/11/21 07:33:00;;;;;;;15.13;4.45;;;1.80;99.90;;;;;;4997778;28;20015;-94
2022/11/21 07:35:26;;;;;;;18.45;8.48;;;1.80;99.90;;;;;;4981164;28;20069;-90
2022/11/21 07:37:52;;;;;;;23.73;6.30;;;1.80;99.90;;;;;;4980655;28;20047;-91
2022/11/21 07:40:19;;;;;;;65.30;7.40;;;1.80;99.90;;;;;;4981408;28;20027;-90
2022/11/21 07:42:44;;;;;;;58.45;9.80;;;1.80;99.90;;;;;;4982195;28;20023;-88
2022/11/21 07:45:11;;;;;;;41.03;5.38;;;1.90;99.90;;;;;;4999169;28;20034;-89
2022/11/21 07:47:36;;;;;;;41.95;5.65;;;1.80;99.90;;;;;;4981316;28;20019;-89
2022/11/21 07:50:03;;;;;;;76.65;8.57;;;1.80;99.90;;;;;;4982454;28;20011;-87
2022/11/21 07:52:29;;;;;;;34.60;4.85;;;1.80;99.90;;;;;;4981421;28;20026;-91
2022/11/21 07:54:56;;;;;;;15.68;5.13;;;1.80;99.90;;;;;;4982166;28;20090;-93
2022/11/21 07:57:22;;;;;;;18.92;5.72;;;1.80;99.90;;;;;;4982315;28;20046;-88
2022/11/21 07:59:48;;;;;;;18.30;5.72;;;1.80;99.90;;;;;;4977517;28;20061;-90
2022/11/21 08:02:24;;;;;;;9.90;5.13;;;1.80;99.90;;;;;;4978935;28;20038;-91
2022/11/21 08:04:50;;;;;;;11.48;5.32;;;1.80;99.90;;;;;;4981258;28;20022;-92
2022/11/21 08:07:18;;;;;;;26.20;6.18;;;1.80;99.90;;;;;;4980596;28;20027;-92
2022/11/21 08:09:44;;;;;;;18.20;6.07;;;1.80;99.90;;;;;;4980694;28;20026;-88
2022/11/21 08:12:13;;;;;;;15.48;6.03;;;1.80;99.90;;;;;;4981769;28;20023;-89
2022/11/21 08:14:38;;;;;;;14.75;4.97;;;1.80;99.90;;;;;;4981752;28;20019;-89
2022/11/21 08:17:05;;;;;;;14.98;5.63;;;1.90;99.90;;;;;;4981475;28;20057;-94
2022/11/21 08:19:31;;;;;;;16.42;5.95;;;1.90;99.90;;;;;;4998639;28;20030;-90
2022/11/21 08:21:57;;;;;;;20.15;6.78;;;1.90;99.90;;;;;;4997724;28;20086;-93
2022/11/21 08:24:23;;;;;;;22.52;8.48;;;2.00;99.90;;;;;;4978975;28;20015;-91
2022/11/21 08:26:51;;;;;;;20.25;7.15;;;2.00;99.90;;;;;;4977235;28;20094;-86
2022/11/21 08:29:17;;;;;;;15.48;5.82;;;2.00;99.90;;;;;;4978908;28;20102;-91
2022/11/21 08:31:44;;;;;;;14.32;6.05;;;2.00;99.90;;;;;;4978645;28;20038;-92
2022/11/21 08:34:10;;;;;;;12.32;6.07;;;2.10;99.90;;;;;;4973052;28;20042;-91
2022/11/21 08:36:36;;;;;;;16.00;7.00;;;2.00;99.90;;;;;;4980512;28;20043;-93
2022/11/21 08:39:02;;;;;;;13.98;6.55;;;2.00;99.90;;;;;;4980337;28;20126;-92
2022/11/21 08:44:13;;;;;;;13.13;6.45;;;2.10;99.90;;;;;;4997967;28;20038;-86
2022/11/21 08:46:38;;;;;;;15.32;6.97;;;2.20;99.90;;;;;;4993226;28;20053;-86
2022/11/21 08:49:08;;;;;;;17.20;6.97;;;2.20;99.90;;;;;;4981473;28;20026;-91
2022/11/21 08:51:34;;;;;;;21.48;7.47;;;2.20;99.90;;;;;;4997816;28;20147;-88
2022/11/21 08:54:00;;;;;;;11.75;6.15;;;2.20;99.90;;;;;;4998391;28;20038;-92
2022/11/21 08:56:27;;;;;;;16.80;6.20;;;2.30;99.90;;;;;;4977470;28;20046;-90
2022/11/21 08:58:55;;;;;;;15.90;6.72;;;2.30;99.90;;;;;;4980283;28;20107;-91
2022/11/21 09:01:24;;;;;;;14.40;6.55;;;2.30;99.90;;;;;;4979137;28;20024;-93
2022/11/21 09:03:49;;;;;;;13.48;6.35;;;2.40;99.90;;;;;;4979380;28;20035;-94
2022/11/21 09:06:15;;;;;;;19.33;7.20;;;2.40;99.90;;;;;;4969805;28;20031;-92
2022/11/21 09:08:42;;;;;;;17.38;6.80;;;2.50;99.90;;;;;;4987545;28;20035;-93
2022/11/21 09:11:09;;;;;;;15.35;4.78;;;2.60;99.90;;;;;;4988857;28;20095;-94
2022/11/21 09:13:35;;;;;;;16.88;6.00;;;2.70;99.90;;;;;;4976692;28;20031;-92
2022/11/21 09:18:49;;;;;;;17.25;5.30;;;3.00;99.90;;;;;;4980508;28;20124;-95
2022/11/21 09:21:19;;;;;;;13.73;5.85;;;3.10;99.90;;;;;;4972619;28;20036;-93
2022/11/21 09:23:44;;;;;;;33.70;10.55;;;3.10;99.90;;;;;;4994150;28;20087;-93
2022/11/21 09:26:13;;;;;;;32.65;10.27;;;3.20;99.90;;;;;;4974501;28;20034;-93
2022/11/21 09:28:40;;;;;;;22.13;9.43;;;3.30;99.90;;;;;;4975597;28;20047;-93
2022/11/21 09:31:11;;;;;;;25.83;8.23;;;3.30;99.90;;;;;;4975526;28;20038;-95
2022/11/21 09:33:37;;;;;;;21.67;6.93;;;3.40;99.90;;;;;;4976794;28;20050;-95
2022/11/21 09:36:03;;;;;;;18.70;5.97;;;3.50;99.90;;;;;;4981765;28;20033;-96
2022/11/21 09:38:28;;;;;;;14.98;3.95;;;3.50;99.90;;;;;;4979134;28;20043;-95
2022/11/21 09:44:31;;;;;;;15.55;2.97;;;3.70;99.90;;;;;;4986092;28;20022;-96
2022/11/21 09:47:23;;;;;;;15.65;3.15;;;3.80;99.90;;;;;;4993382;28;20038;-95
2022/11/21 09:50:00;;;;;;;14.13;2.55;;;3.90;99.90;;;;;;4999743;28;20035;-95
2022/11/21 09:52:43;;;;;;;20.48;3.33;;;3.90;99.90;;;;;;4997731;28;20027;-95
2022/11/21 09:55:34;;;;;;;19.25;3.10;;;4.00;99.90;;;;;;4972216;28;20023;-94
2022/11/21 09:58:10;;;;;;;15.05;2.85;;;4.10;99.90;;;;;;4963725;28;20038;-95
2022/11/21 10:00:38;;;;;;;9.05;2.15;;;4.10;99.90;;;;;;4974985;28;20031;-95
2022/11/21 10:03:05;;;;;;;13.65;2.35;;;4.20;99.90;;;;;;4977706;28;20105;-95
2022/11/21 10:05:57;;;;;;;18.33;2.45;;;4.20;99.90;;;;;;4963773;28;20122;-94
2022/11/21 10:08:33;;;;;;;11.60;2.03;;;4.30;99.90;;;;;;4960534;28;20053;-94
2022/11/21 10:11:20;;;;;;;11.93;2.35;;;4.30;99.90;;;;;;4968261;28;20035;-94
2022/11/21 10:13:56;;;;;;;9.93;2.70;;;4.40;99.90;;;;;;4966566;28;20041;-95
2022/11/21 10:16:41;;;;;;;10.63;2.10;;;4.40;99.90;;;;;;4965434;28;20058;-94
2022/11/21 10:19:12;;;;;;;14.95;2.40;;;4.50;99.90;;;;;;4961065;28;20038;-95
2022/11/21 10:21:56;;;;;;;9.70;1.90;;;4.50;99.90;;;;;;4964620;28;20030;-95
2022/11/21 10:24:39;;;;;;;14.57;2.95;;;4.60;99.90;;;;;;4966951;28;20034;-94
2022/11/21 10:27:16;;;;;;;10.48;2.55;;;4.60;99.90;;;;;;4977458;28;20055;-92
2022/11/21 10:30:05;;;;;;;11.38;2.90;;;4.60;99.90;;;;;;4967152;28;20030;-94
2022/11/21 10:32:43;;;;;;;11.38;2.28;;;4.70;99.90;;;;;;4963474;28;20027;-94
2022/11/21 10:35:21;;;;;;;15.45;2.40;;;4.70;99.90;;;;;;4960091;28;20118;-94
2022/11/21 10:37:59;;;;;;;9.38;1.75;;;4.70;99.90;;;;;;4967532;28;20038;-92
2022/11/21 10:40:25;;;;;;;13.63;3.60;;;4.80;99.90;;;;;;4991411;28;20027;-95
2022/11/21 10:46:03;;;;;;;8.40;3.20;;;4.80;99.90;;;;;;4976627;28;20065;-94
2022/11/21 10:48:37;;;;;;;16.27;4.60;;;4.80;99.90;;;;;;4969563;28;20043;-90
2022/11/21 10:51:12;;;;;;;13.35;5.05;;;4.90;99.90;;;;;;4999022;28;20018;-95
2022/11/21 10:56:25;;;;;;;11.85;3.80;;;4.90;99.90;;;;;;4982437;28;20054;-94
2022/11/21 10:58:58;;;;;;;10.93;2.42;;;4.90;99.90;;;;;;4961049;28;20034;-95
2022/11/21 11:01:44;;;;;;;13.10;3.65;;;4.90;99.90;;;;;;5016578;23;20058;-94
2022/11/21 11:04:10;;;;;;;12.65;2.65;;;4.90;99.90;;;;;;4990657;28;20050;-95
2022/11/21 11:06:38;;;;;;;13.77;2.33;;;4.90;99.90;;;;;;5008408;28;20457;-96
2022/11/21 11:09:06;;;;;;;11.20;2.50;;;4.90;99.90;;;;;;4989376;28;20031;-95
2022/11/21 11:11:34;;;;;;;15.18;2.53;;;4.90;99.90;;;;;;4999436;28;20015;-93
2022/11/21 11:14:04;;;;;;;9.85;2.08;;;4.90;99.90;;;;;;4999968;28;20407;-95
2022/11/21 11:16:33;;;;;;;8.45;2.47;;;4.90;99.90;;;;;;4983302;28;20041;-94
2022/11/21 11:19:04;;;;;;;14.83;2.60;;;4.90;99.90;;;;;;4993560;28;20034;-94
2022/11/21 11:21:53;;;;;;;14.90;3.08;;;4.90;99.90;;;;;;5003469;28;20266;-96
2022/11/21 11:24:25;;;;;;;9.07;2.80;;;4.90;99.90;;;;;;4984278;28;20034;-94
2022/11/21 11:26:57;;;;;;;11.80;2.72;;;4.90;99.90;;;;;;4984514;28;20030;-95
2022/11/21 11:29:40;;;;;;;14.50;2.28;;;4.90;99.90;;;;;;4986408;28;20128;-95
2022/11/21 11:32:19;;;;;;;10.25;2.45;;;4.90;99.90;;;;;;4987377;28;20507;-95
2022/11/21 11:34:56;;;;;;;12.95;3.50;;;4.90;99.90;;;;;;5005551;28;20031;-95
2022/11/21 11:37:37;;;;;;;10.65;2.47;;;4.90;99.90;;;;;;4985509;28;20026;-95
2022/11/21 11:40:19;;;;;;;16.50;3.10;;;5.00;99.90;;;;;;5003077;28;20067;-94
2022/11/21 11:48:27;;;;;;;7.60;2.38;;;5.00;99.90;;;;;;5002227;28;20061;-94
2022/11/21 11:51:03;;;;;;;9.95;3.00;;;5.00;99.90;;;;;;4988056;28;20037;-94
2022/11/21 11:53:37;;;;;;;13.00;2.92;;;5.10;99.90;;;;;;4984309;28;20097;-94
2022/11/21 11:56:17;;;;;;;13.05;3.90;;;5.10;99.90;;;;;;4986858;28;20057;-94
2022/11/21 11:59:11;;;;;;;17.70;3.85;;;5.10;99.90;;;;;;5003664;28;20026;-96
2022/11/21 12:02:02;;;;;;;16.85;3.88;;;5.10;99.90;;;;;;4987972;28;20047;-94
2022/11/21 12:04:33;;;;;;;18.23;4.18;;;5.10;99.90;;;;;;4990436;28;20014;-94
2022/11/21 12:07:05;;;;;;;16.13;4.72;;;5.10;99.90;;;;;;4987036;28;20069;-94
2022/11/21 12:09:33;;;;;;;17.27;4.80;;;5.10;99.90;;;;;;4984853;28;20121;-94
2022/11/21 12:12:10;;;;;;;18.83;4.68;;;5.00;99.90;;;;;;4986295;28;20034;-94
2022/11/21 12:17:49;;;;;;;19.75;6.45;;;5.10;99.90;;;;;;5006783;28;20109;-92
2022/11/21 12:20:23;;;;;;;17.67;4.17;;;5.10;99.90;;;;;;4988865;28;20049;-92
2022/11/21 12:22:52;;;;;;;21.15;5.80;;;5.10;99.90;;;;;;5005811;28;20065;-93
2022/11/21 12:25:24;;;;;;;23.58;5.88;;;5.10;99.90;;;;;;4989931;28;20034;-94
2022/11/21 12:27:53;;;;;;;17.50;5.75;;;5.10;99.90;;;;;;5006316;28;20010;-94
2022/11/21 12:30:57;;;;;;;24.77;5.85;;;5.10;99.90;;;;;;4988110;28;20073;-94
2022/11/21 12:33:24;;;;;;;34.83;12.25;;;5.10;99.90;;;;;;4988271;28;20042;-93
2022/11/21 12:36:02;;;;;;;17.15;6.40;;;5.10;99.90;;;;;;4989093;28;20117;-95
2022/11/21 12:39:10;;;;;;;20.98;5.30;;;5.10;99.90;;;;;;4984986;28;20034;-95
2022/11/21 12:45:26;;;;;;;14.93;5.47;;;5.10;99.90;;;;;;4997065;28;20049;-94
2022/11/21 12:54:48;;;;;;;12.77;4.72;;;5.10;99.90;;;;;;5000943;28;20028;-94
2022/11/21 12:57:19;;;;;;;12.90;4.15;;;5.10;99.90;;;;;;5000209;28;20042;-95
2022/11/21 13:00:06;;;;;;;15.52;4.82;;;5.10;99.90;;;;;;4980071;28;20018;-94
2022/11/21 13:03:07;;;;;;;11.88;5.38;;;5.10;99.90;;;;;;4982090;28;20403;-94
2022/11/21 13:05:40;;;;;;;16.95;4.95;;;5.10;99.90;;;;;;4984554;28;20037;-93
2022/11/21 13:08:16;;;;;;;7.90;4.30;;;5.10;99.90;;;;;;4985674;28;20038;-95
2022/11/21 13:11:57;;;;;;;10.68;3.92;;;5.10;99.90;;;;;;4984175;28;20042;-94
2022/11/21 13:13:44;;;;;;;11.90;4.35;;;5.10;99.90;;;;;;4998955;28;20019;-95
2022/11/21 13:16:36;;;;;;;13.30;5.03;;;5.10;99.90;;;;;;4981690;28;20034;-92
2022/11/21 13:19:36;;;;;;;11.90;5.40;;;5.10;99.90;;;;;;4981867;28;20035;-94
2022/11/21 13:22:04;;;;;;;13.45;4.60;;;5.10;99.90;;;;;;4986665;28;20034;-95
2022/11/21 13:24:48;;;;;;;10.13;5.32;;;5.10;99.90;;;;;;4991250;28;20127;-95
2022/11/21 13:27:28;;;;;;;10.00;5.10;;;5.10;99.90;;;;;;4991092;28;20041;-93
2022/11/21 13:30:16;;;;;;;16.17;5.32;;;5.10;99.90;;;;;;4988092;28;20077;-94
2022/11/21 13:32:47;;;;;;;12.80;7.40;;;5.10;99.90;;;;;;4988499;28;20181;-95
2022/11/21 13:35:18;;;;;;;19.23;6.30;;;5.10;99.90;;;;;;4986539;28;20031;-94
2022/11/21 13:38:03;;;;;;;;;;;5.10;99.90;;;;;;4985252;28;20057;-95
2022/11/21 13:40:36;;;;;;;12.77;5.43;;;5.10;99.90;;;;;;4982050;28;20051;-93
2022/11/21 13:43:14;;;;;;;9.93;4.60;;;5.10;99.90;;;;;;4984790;28;20388;-94
2022/11/21 13:45:49;;;;;;;9.10;4.68;;;5.10;99.90;;;;;;4983506;28;20023;-94
2022/11/21 13:48:35;;;;;;;14.98;4.80;;;5.10;99.90;;;;;;4982251;28;20022;-93